Time;durP1;ratioP1;P1;durP2;ratioP2;P2;SDS_P1;SDS_P2;PMS_P1;PMS_P2;Temp;Humidity;BMP_temperature;BMP_pressure;BME280_temperature;BME280_humidity;BME280_pressure;Samples;Min_cycle;Max_cycle;Signal;HPM_P1;HPM_P2
2021/12/10 00:01:49;;;;;;;25.00;16.17;;;;;;;1.08;89.81;99757.59;5025130;28;20434;-74
2021/12/10 00:04:17;;;;;;;24.67;15.13;;;;;;;1.09;89.79;99751.59;5027946;28;20045;-75
2021/12/10 00:06:50;;;;;;;42.65;20.90;;;;;;;1.08;89.89;99752.44;5015040;28;20044;-74
2021/12/10 00:09:21;;;;;;;41.38;21.20;;;;;;;1.13;90.07;99746.47;5031192;28;20028;-73
2021/12/10 00:11:51;;;;;;;25.98;14.68;;;;;;;1.14;89.84;99735.31;5024555;28;20033;-73
2021/12/10 00:14:18;;;;;;;44.20;20.83;;;;;;;1.16;89.87;99730.16;5044778;28;20031;-74
2021/12/10 00:16:44;;;;;;;45.88;19.60;;;;;;;1.17;89.96;99727.59;5012171;28;20401;-75
2021/12/10 00:19:29;;;;;;;29.92;18.60;;;;;;;1.25;89.73;99735.41;4992564;28;20481;-75
2021/12/10 00:21:58;;;;;;;28.98;16.23;;;;;;;1.27;89.84;99718.22;5034028;28;20107;-75
2021/12/10 00:24:28;;;;;;;35.55;18.33;;;;;;;1.31;89.60;99719.97;5031148;28;20083;-76
2021/12/10 00:27:03;;;;;;;33.83;15.10;;;;;;;1.36;89.29;99701.94;5030613;28;20073;-75
2021/12/10 00:29:29;;;;;;;33.30;16.63;;;;;;;1.37;88.90;99689.03;5028699;28;20044;-75
2021/12/10 00:32:02;;;;;;;49.50;17.20;;;;;;;1.39;88.46;99678.72;5030942;28;20072;-77
2021/12/10 00:34:41;;;;;;;26.42;16.10;;;;;;;1.41;88.37;99673.56;5019741;28;20042;-72
2021/12/10 00:37:10;;;;;;;24.70;16.27;;;;;;;1.38;88.69;99670.13;5030813;28;20079;-78
2021/12/10 00:39:43;;;;;;;24.73;11.77;;;;;;;1.35;88.28;99671.81;5029321;28;20417;-74
2021/12/10 00:42:15;;;;;;;26.80;15.55;;;;;;;1.35;87.95;99662.34;5029841;28;20029;-74
2021/12/10 00:44:47;;;;;;;28.45;15.27;;;;;;;1.36;88.03;99658.91;5027183;28;20080;-75
2021/12/10 00:47:13;;;;;;;23.35;14.30;;;;;;;1.37;87.71;99657.22;5031210;28;20108;-76
2021/12/10 00:49:39;;;;;;;27.40;13.98;;;;;;;1.35;87.75;99644.28;5029667;28;20024;-73
2021/12/10 00:52:07;;;;;;;23.75;11.95;;;;;;;1.31;87.69;99652.88;5024658;28;20056;-74
2021/12/10 00:54:33;;;;;;;22.00;13.13;;;;;;;1.30;87.84;99650.28;5030058;28;20053;-73
2021/12/10 00:57:01;;;;;;;22.08;13.20;;;;;;;1.29;87.38;99644.22;5030411;28;20123;-73
2021/12/10 00:59:26;;;;;;;20.25;12.43;;;;;;;1.24;87.42;99629.59;5011951;28;20053;-73
2021/12/10 01:02:05;;;;;;;23.95;15.25;;;;;;;1.24;87.91;99622.72;5007672;28;20044;-75
2021/12/10 01:04:35;;;;;;;37.33;17.55;;;;;;;1.25;87.47;99624.44;5028918;28;20033;-74
2021/12/10 01:07:06;;;;;;;27.13;16.63;;;;;;;1.24;87.83;99608.94;5030401;28;20112;-73
2021/12/10 01:09:37;;;;;;;31.95;15.43;;;;;;;1.19;87.24;99604.63;5022026;28;20493;-72
2021/12/10 01:12:17;;;;;;;25.80;11.85;;;;;;;1.19;87.45;99590.84;5030939;28;20473;-73
2021/12/10 01:23:50;;;;;;;16.60;10.52;;;;;;;1.09;87.22;99560.66;5030394;28;20113;-73
2021/12/10 01:26:55;;;;;;;21.30;10.52;;;;;;;1.11;87.11;99566.72;5015901;28;20049;-74
2021/12/10 01:29:31;;;;;;;16.35;10.32;;;;;;;1.08;86.71;99549.50;5043332;28;20048;-73
2021/12/10 01:35:52;;;;;;;10.68;7.47;;;;;;;1.11;86.77;99528.03;5006103;28;20034;-74
2021/12/10 01:38:19;;;;;;;15.82;7.85;;;;;;;1.07;86.99;99529.72;5023065;28;20462;-73
2021/12/10 01:40:49;;;;;;;19.30;10.85;;;;;;;1.04;86.95;99522.81;5012950;28;20033;-73
2021/12/10 01:43:23;;;;;;;14.57;9.82;;;;;;;1.03;86.91;99523.69;5029220;28;20033;-73
2021/12/10 01:45:54;;;;;;;16.80;10.05;;;;;;;1.00;87.16;99515.91;5027214;28;20060;-73
2021/12/10 01:48:27;;;;;;;14.93;6.93;;;;;;;1.03;87.19;99509.91;5029629;28;20095;-73
2021/12/10 01:50:55;;;;;;;17.13;8.52;;;;;;;1.03;86.97;99500.47;5028855;28;20033;-73
2021/12/10 01:53:37;;;;;;;14.35;8.60;;;;;;;1.07;87.00;99505.63;5028801;28;20541;-73
2021/12/10 01:56:11;;;;;;;10.80;7.00;;;;;;;1.07;86.96;99497.91;5030000;28;20044;-73
2021/12/10 01:58:37;;;;;;;10.80;7.22;;;;;;;1.07;86.78;99488.44;5044544;28;20036;-73
2021/12/10 02:01:16;;;;;;;14.20;8.55;;;;;;;1.10;86.59;99493.59;5028862;28;20046;-72
2021/12/10 02:03:46;;;;;;;14.82;8.30;;;;;;;1.09;86.68;99496.16;5025059;28;20412;-71
2021/12/10 02:06:12;;;;;;;18.45;9.70;;;;;;;1.09;86.84;99475.53;5012011;28;20040;-71
2021/12/10 02:08:38;;;;;;;12.85;7.28;;;;;;;1.09;86.58;99472.94;5029568;28;20037;-71
2021/12/10 02:11:06;;;;;;;11.48;6.53;;;;;;;1.08;86.27;99471.22;5029447;28;20061;-70
2021/12/10 02:13:32;;;;;;;10.95;7.03;;;;;;;1.07;86.11;99467.78;5027894;28;20160;-72
2021/12/10 02:15:58;;;;;;;11.50;7.00;;;;;;;1.08;86.15;99463.47;5045711;28;20029;-72
2021/12/10 02:18:24;;;;;;;10.10;6.10;;;;;;;1.02;86.35;99447.13;5044723;28;20034;-71
2021/12/10 02:21:02;;;;;;;9.60;5.22;;;;;;;1.03;86.35;99447.97;5029525;28;20500;-72
2021/12/10 02:23:38;;;;;;;7.40;5.30;;;;;;;1.01;86.40;99441.97;5030133;28;20033;-72
2021/12/10 02:26:06;;;;;;;11.82;5.82;;;;;;;1.00;86.32;99445.41;5013660;28;20042;-72
2021/12/10 02:28:34;;;;;;;17.45;5.47;;;;;;;1.00;86.41;99430.75;5027893;28;20041;-71
2021/12/10 02:31:00;;;;;;;11.43;5.88;;;;;;;0.93;86.51;99423.00;5015059;28;20045;-71
2021/12/10 02:33:27;;;;;;;12.18;4.75;;;;;;;0.90;86.52;99413.53;5007031;28;20038;-72
2021/12/10 02:35:53;;;;;;;10.88;5.47;;;;;;;0.89;86.23;99413.53;5012923;28;20544;-71
2021/12/10 02:38:20;;;;;;;8.18;4.53;;;;;;;0.88;86.46;99404.94;5031153;28;20041;-72
2021/12/10 02:40:48;;;;;;;11.07;5.18;;;;;;;0.86;86.70;99404.94;5016119;28;20049;-71
2021/12/10 02:43:18;;;;;;;11.90;5.25;;;;;;;0.83;86.96;99396.31;5030173;28;20038;-71
2021/12/10 02:45:51;;;;;;;9.85;4.70;;;;;;;0.89;86.56;99398.06;5025641;28;20025;-73
2021/12/10 02:48:16;;;;;;;12.45;5.28;;;;;;;0.89;86.31;99387.72;5032450;28;20394;-70
2021/12/10 02:50:43;;;;;;;9.77;4.13;;;;;;;0.87;86.14;99385.16;5015854;28;20045;-73
2021/12/10 02:53:13;;;;;;;14.25;5.75;;;;;;;0.90;86.22;99372.25;5031934;28;20052;-71
2021/12/10 02:55:43;;;;;;;16.48;4.70;;;;;;;0.92;86.28;99374.84;5032115;28;20033;-72
2021/12/10 02:58:24;;;;;;;5.93;4.20;;;;;;;1.00;85.86;99374.00;5040366;28;20148;-71
2021/12/10 03:01:07;;;;;;;17.63;5.20;;;;;;;0.96;85.73;99377.47;5031837;28;20057;-72
2021/12/10 03:03:32;;;;;;;11.85;4.40;;;;;;;1.00;85.55;99368.00;5040251;28;20095;-72
2021/12/10 03:05:58;;;;;;;9.32;5.05;;;;;;;1.05;85.14;99366.31;5031567;28;20026;-72
2021/12/10 03:08:24;;;;;;;7.07;4.22;;;;;;;0.98;85.72;99360.25;4996559;28;20041;-71
2021/12/10 03:10:49;;;;;;;6.82;4.00;;;;;;;1.00;85.72;99353.38;5031608;28;20036;-72
2021/12/10 03:13:16;;;;;;;13.93;6.65;;;;;;;1.00;85.60;99344.78;5031976;28;20135;-72
2021/12/10 03:15:42;;;;;;;11.70;5.65;;;;;;;1.03;85.66;99353.41;5031407;28;20060;-73
2021/12/10 03:18:11;;;;;;;8.27;4.28;;;;;;;1.08;85.33;99348.25;5027474;28;20076;-72
2021/12/10 03:21:04;;;;;;;9.40;6.10;;;;;;;1.13;85.34;99340.53;5020961;28;20029;-72
2021/12/10 03:23:30;;;;;;;11.82;6.03;;;;;;;1.14;84.77;99344.84;5033000;28;20038;-73
2021/12/10 03:25:56;;;;;;;7.93;5.28;;;;;;;1.16;84.89;99340.53;5009989;28;20036;-72
2021/12/10 03:28:21;;;;;;;11.40;6.60;;;;;;;1.16;84.37;99328.47;5012974;28;20033;-73
2021/12/10 03:30:52;;;;;;;14.23;7.18;;;;;;;1.17;84.70;99319.03;5013201;28;20029;-81
2021/12/10 03:33:18;;;;;;;11.25;6.47;;;;;;;1.17;84.41;99314.72;5033202;28;20025;-84
2021/12/10 03:35:48;;;;;;;14.07;5.85;;;;;;;1.23;84.41;99311.28;5032975;28;20033;-82
2021/12/10 03:38:21;;;;;;;14.40;6.63;;;;;;;1.24;83.94;99302.72;5048421;28;20025;-80
2021/12/10 03:40:46;;;;;;;11.88;5.55;;;;;;;1.26;83.89;99306.13;5032508;28;20104;-83
2021/12/10 03:43:13;;;;;;;9.25;5.00;;;;;;;1.23;83.81;99298.41;5030155;28;20152;-80
2021/12/10 03:45:45;;;;;;;9.98;5.57;;;;;;;1.18;83.95;99295.81;5016119;28;20029;-82
2021/12/10 03:48:15;;;;;;;13.48;6.00;;;;;;;1.16;84.20;99291.50;5032599;28;20039;-84
2021/12/10 03:50:44;;;;;;;16.45;5.45;;;;;;;1.13;84.12;99292.34;5023073;28;20051;-83
2021/12/10 03:53:11;;;;;;;9.43;4.07;;;;;;;1.11;84.04;99288.06;5025367;28;20025;-81
2021/12/10 03:55:37;;;;;;;7.68;4.75;;;;;;;1.07;84.08;99286.34;5018961;28;20117;-81
2021/12/10 03:58:04;;;;;;;5.60;4.60;;;;;;;1.01;83.98;99275.13;5031703;28;20033;-79
2021/12/10 04:00:34;;;;;;;13.40;4.32;;;;;;;1.00;84.04;99269.97;5013251;28;20498;-82
2021/12/10 04:03:01;;;;;;;9.95;4.75;;;;;;;0.99;84.24;99268.25;5027025;28;20063;-82
2021/12/10 04:05:27;;;;;;;7.97;4.18;;;;;;;0.96;84.63;99261.41;5027033;28;20033;-78
2021/12/10 04:07:54;;;;;;;9.80;4.13;;;;;;;0.97;84.33;99259.66;5031512;28;20103;-81
2021/12/10 04:10:21;;;;;;;6.00;4.03;;;;;;;0.95;84.48;99267.41;5030879;28;20405;-80
2021/12/10 04:12:47;;;;;;;12.55;4.03;;;;;;;0.97;84.27;99260.50;5032018;28;20496;-80
2021/12/10 04:15:17;;;;;;;5.93;3.80;;;;;;;0.93;84.54;99261.34;5014798;28;20046;-80
2021/12/10 04:17:43;;;;;;;13.70;3.77;;;;;;;0.95;84.77;99254.50;5031684;28;20029;-81
2021/12/10 04:20:10;;;;;;;4.68;3.60;;;;;;;0.97;85.07;99250.19;5015680;28;20401;-82
2021/12/10 04:22:36;;;;;;;4.05;3.20;;;;;;;0.96;84.92;99238.19;5013954;28;20060;-79
2021/12/10 04:25:17;;;;;;;12.48;3.80;;;;;;;1.00;85.13;99236.44;5014494;28;20457;-82
2021/12/10 04:27:44;;;;;;;8.57;3.72;;;;;;;1.04;84.76;99226.13;5030969;28;20037;-81
2021/12/10 04:30:12;;;;;;;10.77;4.28;;;;;;;1.07;84.99;99221.84;5013996;28;20037;-81
2021/12/10 04:32:41;;;;;;;5.30;3.88;;;;;;;1.10;85.04;99219.25;5024900;28;20037;-81
2021/12/10 04:35:10;;;;;;;8.52;4.15;;;;;;;1.07;84.94;99212.38;5030599;28;20103;-82
2021/12/10 04:37:36;;;;;;;12.65;3.60;;;;;;;1.17;84.59;99213.25;5030551;28;20511;-81
2021/12/10 04:40:05;;;;;;;8.45;3.42;;;;;;;1.10;84.95;99206.38;5030737;28;20381;-82
2021/12/10 04:42:31;;;;;;;9.95;4.30;;;;;;;1.16;84.67;99206.34;5028690;28;20037;-81
2021/12/10 04:44:59;;;;;;;7.70;2.63;;;;;;;1.17;84.75;99195.19;5030334;28;20037;-84
2021/12/10 04:47:26;;;;;;;8.23;3.08;;;;;;;1.19;84.56;99199.50;5030629;28;20041;-83
2021/12/10 04:49:52;;;;;;;3.70;2.60;;;;;;;1.25;84.29;99190.00;5032237;28;20036;-80
2021/12/10 04:52:18;;;;;;;5.50;2.72;;;;;;;1.26;84.18;99181.41;5030394;28;20041;-80
2021/12/10 04:54:44;;;;;;;11.82;3.10;;;;;;;1.26;84.23;99166.78;5030997;28;20040;-79
2021/12/10 04:57:10;;;;;;;8.23;2.80;;;;;;;1.28;84.07;99170.25;5014241;28;20049;-78
2021/12/10 04:59:38;;;;;;;7.40;2.55;;;;;;;1.32;83.85;99164.22;5030933;28;20464;-82
2021/12/10 05:02:07;;;;;;;9.10;2.60;;;;;;;1.43;83.58;99155.59;5014136;28;20029;-81
2021/12/10 05:04:33;;;;;;;5.25;3.13;;;;;;;1.47;83.04;99150.41;5031191;28;20068;-81
2021/12/10 05:06:59;;;;;;;3.60;2.60;;;;;;;1.48;82.77;99146.97;5031673;28;20029;-82
2021/12/10 05:09:26;;;;;;;8.60;2.15;;;;;;;1.48;83.37;99146.09;5028206;28;20032;-83
2021/12/10 05:11:53;;;;;;;8.85;1.83;;;;;;;1.54;83.17;99131.47;5029134;28;20029;-83
2021/12/10 05:14:19;;;;;;;7.85;3.42;;;;;;;1.58;82.92;99132.34;5029851;28;20441;-82
2021/12/10 05:16:47;;;;;;;8.85;2.25;;;;;;;1.57;82.63;99130.59;5023266;28;20041;-80
2021/12/10 05:19:16;;;;;;;4.53;2.50;;;;;;;1.62;82.48;99118.53;5028784;28;20037;-81
2021/12/10 05:21:45;;;;;;;9.55;2.38;;;;;;;1.58;82.63;99110.81;5029216;28;20029;-79
2021/12/10 05:24:12;;;;;;;5.93;2.28;;;;;;;1.61;82.50;99114.25;5016581;28;20064;-73
2021/12/10 05:26:38;;;;;;;6.70;2.38;;;;;;;1.56;82.60;99116.81;5030521;28;20083;-71
2021/12/10 05:29:31;;;;;;;5.35;2.45;;;;;;;1.63;83.08;99112.50;5036769;28;20429;-73
2021/12/10 05:31:59;;;;;;;7.43;2.63;;;;;;;1.58;82.78;99110.81;5026226;28;20130;-74
2021/12/10 05:34:25;;;;;;;4.85;2.05;;;;;;;1.53;84.34;99110.81;5010519;28;20030;-74
2021/12/10 05:37:00;;;;;;;4.32;2.28;;;;;;;1.56;82.86;99103.91;4977912;28;20042;-75
2021/12/10 05:40:14;;;;;;;7.72;2.47;;;;;;;1.57;82.75;99107.38;5025064;28;20478;-72
2021/12/10 05:42:41;;;;;;;6.38;2.67;;;;;;;1.59;83.64;99112.53;5024827;28;20116;-72
2021/12/10 05:45:09;;;;;;;6.88;1.85;;;;;;;1.61;82.70;99092.72;5017596;28;20037;-72
2021/12/10 05:47:34;;;;;;;12.73;2.63;;;;;;;1.71;82.13;99095.28;5029290;28;20035;-73
2021/12/10 05:50:00;;;;;;;4.13;2.38;;;;;;;1.65;82.70;99094.44;5010998;28;20123;-71
2021/12/10 05:52:26;;;;;;;1.83;1.40;;;;;;;1.63;82.71;99091.84;5025749;28;20041;-76
2021/12/10 05:54:52;;;;;;;22.75;3.03;;;;;;;1.70;82.27;99088.38;4982376;28;20802;-72
2021/12/10 05:57:19;;;;;;;5.00;1.98;;;;;;;1.72;82.44;99086.66;5022592;28;20041;-73
2021/12/10 05:59:45;;;;;;;9.27;1.95;;;;;;;1.71;82.56;99097.84;5030652;28;20081;-72
2021/12/10 06:02:11;;;;;;;7.45;2.20;;;;;;;1.74;82.52;99078.91;4997764;28;20040;-72
2021/12/10 06:04:37;;;;;;;6.80;2.42;;;;;;;1.82;82.08;99076.28;5006147;28;20037;-73
2021/12/10 06:07:04;;;;;;;6.93;1.58;;;;;;;1.81;82.23;99074.56;5026409;28;20069;-72
2021/12/10 06:09:31;;;;;;;4.65;2.20;;;;;;;1.81;82.73;99070.28;5028102;28;20030;-71
2021/12/10 06:11:56;;;;;;;18.80;9.52;;;;;;;1.85;82.23;99071.09;5026145;28;20118;-73
2021/12/10 06:14:22;;;;;;;7.97;2.42;;;;;;;1.86;82.22;99068.50;4999217;28;20425;-74
2021/12/10 06:16:47;;;;;;;19.85;3.90;;;;;;;1.85;82.30;99065.94;5026506;28;20437;-73
2021/12/10 06:19:13;;;;;;;4.90;1.92;;;;;;;1.84;81.95;99077.13;4995537;28;20061;-73
2021/12/10 06:21:39;;;;;;;6.55;2.40;;;;;;;1.85;82.38;99050.44;5033612;28;20070;-73
2021/12/10 06:24:08;;;;;;;4.95;1.70;;;;;;;1.85;82.08;99053.91;5030821;28;20084;-74
2021/12/10 06:26:33;;;;;;;13.07;2.75;;;;;;;1.82;82.04;99053.88;5032432;28;20547;-73
2021/12/10 06:28:59;;;;;;;5.05;2.33;;;;;;;1.85;82.38;99050.44;5014948;28;20037;-74
2021/12/10 06:31:25;;;;;;;11.93;2.58;;;;;;;1.93;82.00;99048.69;5012332;28;20504;-73
2021/12/10 06:33:52;;;;;;;10.07;3.55;;;;;;;1.87;81.36;99048.72;5029447;28;20128;-73
2021/12/10 06:36:19;;;;;;;7.18;1.88;;;;;;;1.93;82.11;99046.09;5016337;28;20037;-73
2021/12/10 06:38:46;;;;;;;6.45;2.35;;;;;;;1.93;81.73;99048.69;5015955;28;20083;-73
2021/12/10 06:41:14;;;;;;;22.08;8.35;;;;;;;1.88;81.66;99048.72;5027063;28;20029;-73
2021/12/10 06:43:41;;;;;;;4.50;2.20;;;;;;;1.97;81.20;99052.97;5023765;28;20130;-72
2021/12/10 06:46:07;;;;;;;7.72;2.63;;;;;;;1.99;81.66;99051.22;5018324;28;20406;-72
2021/12/10 06:48:33;;;;;;;9.05;3.25;;;;;;;1.91;82.23;99045.22;5015801;28;20037;-72
2021/12/10 06:51:03;;;;;;;6.47;2.50;;;;;;;1.90;82.21;99043.53;5015651;28;20057;-72
2021/12/10 06:53:30;;;;;;;1.80;1.63;;;;;;;1.89;82.52;99046.97;5033030;28;20496;-72
2021/12/10 06:55:57;;;;;;;9.48;2.47;;;;;;;1.92;82.01;99057.28;5014224;28;20393;-72
2021/12/10 06:58:23;;;;;;;8.10;2.17;;;;;;;1.92;82.21;99052.13;5025994;28;20477;-71
2021/12/10 07:00:55;;;;;;;6.72;2.08;;;;;;;1.92;82.08;99049.53;5015964;28;20115;-74
2021/12/10 07:03:23;;;;;;;4.07;1.42;;;;;;;1.92;82.23;99052.13;5032845;28;20060;-74
2021/12/10 07:05:51;;;;;;;5.05;2.03;;;;;;;1.88;82.27;99047.84;5024470;28;20596;-74
2021/12/10 07:08:21;;;;;;;16.52;2.88;;;;;;;1.91;82.34;99055.56;5027732;28;20040;-73
2021/12/10 07:10:48;;;;;;;9.93;2.53;;;;;;;1.85;82.66;99065.94;5032666;28;20033;-73
2021/12/10 07:13:15;;;;;;;12.18;6.70;;;;;;;1.87;81.96;99053.88;5007659;28;20048;-73
2021/12/10 07:15:43;;;;;;;7.15;1.70;;;;;;;1.90;81.86;99051.28;5027431;28;20044;-73
2021/12/10 07:18:10;;;;;;;17.77;3.72;;;;;;;1.90;81.54;99061.63;5031722;28;20069;-72
2021/12/10 07:20:37;;;;;;;10.18;2.65;;;;;;;1.90;81.72;99053.88;5023846;28;20116;-73
2021/12/10 07:23:03;;;;;;;7.07;2.17;;;;;;;1.86;82.07;99062.50;5010371;28;20036;-72
2021/12/10 07:25:28;;;;;;;6.03;2.08;;;;;;;1.90;81.53;99049.53;5031118;28;20029;-72
2021/12/10 07:27:55;;;;;;;8.98;2.55;;;;;;;1.86;81.64;99052.16;5015826;28;20037;-72
2021/12/10 07:30:24;;;;;;;6.13;2.40;;;;;;;1.86;81.26;99045.25;5030646;28;20037;-73
2021/12/10 07:32:50;;;;;;;10.10;3.05;;;;;;;1.85;81.15;99048.72;5031442;28;20021;-71
2021/12/10 07:35:16;;;;;;;8.10;2.42;;;;;;;1.87;81.86;99057.31;5030273;28;20025;-76
2021/12/10 07:37:41;;;;;;;11.40;4.32;;;;;;;1.84;81.26;99049.59;5015649;28;20044;-73
2021/12/10 07:40:12;;;;;;;14.50;2.05;;;;;;;1.93;80.88;99048.69;5005683;28;20037;-73
2021/12/10 07:42:37;;;;;;;3.67;1.90;;;;;;;1.89;81.19;99046.97;5032023;28;20052;-73
2021/12/10 07:45:05;;;;;;;11.30;3.38;;;;;;;1.89;80.68;99041.81;5012790;28;20485;-74
2021/12/10 07:47:34;;;;;;;10.07;3.05;;;;;;;1.92;80.63;99043.53;5031415;28;20439;-75
2021/12/10 07:50:00;;;;;;;9.20;3.65;;;;;;;1.88;80.96;99042.66;5015170;28;20083;-73
2021/12/10 07:52:28;;;;;;;7.75;3.80;;;;;;;1.88;81.20;99042.66;4999270;28;20056;-73
2021/12/10 07:54:54;;;;;;;7.28;3.38;;;;;;;1.88;80.83;99034.91;5029833;28;20025;-72
2021/12/10 07:57:22;;;;;;;6.28;3.08;;;;;;;1.89;81.16;99044.38;5031085;28;20029;-72
2021/12/10 07:59:49;;;;;;;10.95;3.45;;;;;;;1.92;80.18;99046.94;5013309;28;20041;-72
2021/12/10 08:02:16;;;;;;;8.45;3.53;;;;;;;1.90;80.86;99057.28;5031630;28;20021;-73
2021/12/10 08:04:42;;;;;;;5.00;2.80;;;;;;;1.95;81.38;99061.59;5026211;28;20030;-73
2021/12/10 08:07:08;;;;;;;6.97;2.67;;;;;;;2.02;80.99;99061.53;5029228;28;20520;-72
2021/12/10 08:09:33;;;;;;;7.40;3.60;;;;;;;2.05;80.55;99047.75;4985217;28;20222;-74
2021/12/10 08:11:59;;;;;;;12.07;3.38;;;;;;;2.06;80.14;99063.22;5002937;28;20379;-73
2021/12/10 08:14:24;;;;;;;16.05;3.70;;;;;;;2.10;80.46;99055.47;5013466;28;20053;-72
2021/12/10 08:16:50;;;;;;;10.75;3.88;;;;;;;2.04;80.21;99056.34;5013622;28;20037;-73
2021/12/10 08:19:16;;;;;;;9.43;3.35;;;;;;;2.13;81.51;99066.66;5025158;28;20104;-73
2021/12/10 08:21:43;;;;;;;8.55;4.00;;;;;;;2.22;80.34;99055.41;5011022;28;20123;-75
2021/12/10 08:24:08;;;;;;;9.80;4.90;;;;;;;2.18;80.24;99054.53;5030422;28;20041;-73
2021/12/10 08:26:35;;;;;;;10.23;3.85;;;;;;;2.18;80.60;99056.28;5013556;28;20026;-75
2021/12/10 08:29:02;;;;;;;20.00;4.95;;;;;;;2.21;80.13;99059.72;5044650;28;20374;-73
2021/12/10 08:31:29;;;;;;;12.25;4.55;;;;;;;2.28;80.16;99062.25;5030249;28;20025;-74
2021/12/10 08:33:55;;;;;;;8.20;3.80;;;;;;;2.29;80.55;99062.25;5012143;28;20481;-73
2021/12/10 08:36:21;;;;;;;6.85;4.68;;;;;;;2.28;79.58;99064.84;5030472;28;20502;-72
2021/12/10 08:38:47;;;;;;;10.52;5.07;;;;;;;2.29;80.31;99058.81;5030466;28;20025;-74
2021/12/10 08:41:16;;;;;;;10.70;5.43;;;;;;;2.28;80.06;99070.84;5001505;28;20444;-73
2021/12/10 08:43:42;;;;;;;8.25;3.88;;;;;;;2.32;80.00;99067.38;5012602;28;20025;-74
2021/12/10 08:46:09;;;;;;;10.00;4.35;;;;;;;2.39;79.32;99060.44;5008051;28;20068;-73
2021/12/10 08:48:36;;;;;;;20.85;7.32;;;;;;;2.36;79.66;99066.50;5022924;28;20072;-73
2021/12/10 08:51:11;;;;;;;12.25;5.15;;;;;;;2.44;79.16;99071.59;5021790;28;20489;-74
2021/12/10 08:53:37;;;;;;;9.95;5.05;;;;;;;2.41;79.76;99076.78;5030423;28;20024;-72
2021/12/10 08:56:04;;;;;;;11.48;7.32;;;;;;;2.36;79.52;99063.91;5010155;28;20381;-78
2021/12/10 08:58:29;;;;;;;11.93;4.90;;;;;;;2.40;78.42;99073.38;4987020;28;20034;-74
2021/12/10 09:01:02;;;;;;;13.57;5.13;;;;;;;2.40;79.06;99065.59;5024260;28;20053;-85
2021/12/10 09:03:27;;;;;;;9.57;5.07;;;;;;;2.42;79.35;99066.44;5030077;28;20029;-81
2021/12/10 09:05:54;;;;;;;16.08;5.07;;;;;;;2.51;78.95;99059.50;5013594;28;20063;-81
2021/12/10 09:08:19;;;;;;;10.30;4.43;;;;;;;2.53;79.57;99070.66;5030605;28;20036;-84
2021/12/10 09:10:46;;;;;;;21.88;6.07;;;;;;;2.54;78.83;99070.69;4990336;28;20025;-82
2021/12/10 09:13:15;;;;;;;7.43;3.88;;;;;;;2.54;78.92;99077.56;5009865;28;20032;-79
2021/12/10 09:15:44;;;;;;;8.10;4.00;;;;;;;2.61;79.52;99079.25;5010457;28;20018;-82
2021/12/10 09:18:10;;;;;;;8.98;4.40;;;;;;;2.59;78.87;99079.25;5030277;28;20040;-81
2021/12/10 09:20:41;;;;;;;15.68;5.22;;;;;;;2.67;79.47;99091.25;5029422;28;20021;-81
2021/12/10 09:23:13;;;;;;;9.10;5.55;;;;;;;2.65;79.35;99086.09;5029878;28;20441;-83
2021/12/10 09:25:41;;;;;;;7.32;4.53;;;;;;;2.69;80.20;99085.22;5029275;28;20032;-82
2021/12/10 09:28:07;;;;;;;14.00;5.45;;;;;;;2.73;79.18;99081.75;5037160;28;20466;-81
2021/12/10 09:30:35;;;;;;;9.35;4.35;;;;;;;2.75;79.46;99082.56;5022163;28;20052;-82
2021/12/10 09:33:01;;;;;;;8.20;3.70;;;;;;;2.87;78.05;99086.78;5029681;28;20025;-81
2021/12/10 09:35:29;;;;;;;9.02;4.65;;;;;;;2.84;78.58;99076.47;5024613;28;20040;-80
2021/12/10 09:37:55;;;;;;;12.52;3.95;;;;;;;2.86;79.55;99081.63;5028938;28;20029;-82
2021/12/10 09:40:27;;;;;;;8.20;4.30;;;;;;;2.93;78.92;99086.75;5015941;28;20030;-83
2021/12/10 09:42:53;;;;;;;15.13;4.85;;;;;;;2.95;77.81;99092.75;5018304;28;20053;-77
2021/12/10 09:45:22;;;;;;;24.15;4.95;;;;;;;2.98;77.93;99084.09;5012835;28;20036;-78
2021/12/10 09:47:48;;;;;;;10.68;4.45;;;;;;;3.02;78.28;99090.97;5030585;28;20542;-81
2021/12/10 09:50:16;;;;;;;12.02;5.10;;;;;;;3.10;77.41;99086.59;5029387;28;20362;-81
2021/12/10 09:52:42;;;;;;;7.80;4.22;;;;;;;3.12;77.78;99097.78;5013995;28;20489;-81
2021/12/10 09:55:12;;;;;;;27.52;5.47;;;;;;;3.16;76.90;99087.38;5012780;28;20040;-80
2021/12/10 09:57:38;;;;;;;7.88;4.40;;;;;;;3.18;79.00;99096.88;5027072;28;20039;-80
2021/12/10 10:00:17;;;;;;;9.77;4.63;;;;;;;3.20;78.75;99089.94;5012428;28;20054;-82
2021/12/10 10:02:43;;;;;;;7.00;4.65;;;;;;;3.23;77.68;99086.44;5030063;28;20037;-81
2021/12/10 10:05:09;;;;;;;7.10;4.63;;;;;;;3.23;77.74;99083.88;5019196;28;20573;-79
2021/12/10 10:07:37;;;;;;;12.25;3.60;;;;;;;3.28;77.90;99082.94;4993994;28;20439;-82
2021/12/10 10:10:11;;;;;;;10.70;3.63;;;;;;;3.33;76.88;99085.47;4993796;28;20034;-81
2021/12/10 10:12:40;;;;;;;12.70;5.03;;;;;;;3.25;77.48;99077.81;5014321;28;20029;-80
2021/12/10 10:15:11;;;;;;;7.38;4.70;;;;;;;3.27;76.76;99085.56;5028903;28;20432;-80
2021/12/10 10:17:36;;;;;;;;;;;;;;;3.35;78.47;99077.69;5030398;28;20076;-80
2021/12/10 10:20:03;;;;;;;15.40;4.45;;;;;;;3.32;77.51;99088.09;5013298;28;19913;-80
2021/12/10 10:22:29;;;;;;;14.38;3.85;;;;;;;3.26;77.10;99089.88;5010888;28;20133;-80
2021/12/10 10:24:56;;;;;;;8.55;3.13;;;;;;;3.31;76.87;99097.59;4996827;28;20120;-78
2021/12/10 10:27:27;;;;;;;7.22;3.60;;;;;;;3.23;77.52;99084.75;5012064;28;20033;-83
2021/12/10 10:30:27;;;;;;;8.07;4.32;;;;;;;3.25;78.24;99087.31;5028477;28;20073;-82
2021/12/10 10:32:55;;;;;;;12.93;4.93;;;;;;;3.20;76.55;99083.91;5017641;28;20037;-83
2021/12/10 10:35:27;;;;;;;9.27;3.85;;;;;;;3.24;77.88;99094.19;5023116;28;20648;-83
2021/12/10 10:37:55;;;;;;;8.35;3.97;;;;;;;3.22;77.76;99088.19;5010229;28;20046;-83
2021/12/10 10:40:25;;;;;;;9.63;4.20;;;;;;;3.12;78.01;99091.75;4993655;28;20088;-82
2021/12/10 10:42:51;;;;;;;7.40;3.22;;;;;;;3.18;77.40;99085.66;5012065;28;20044;-82
2021/12/10 10:45:21;;;;;;;7.10;3.40;;;;;;;3.21;77.11;99085.63;5013679;28;20509;-84
2021/12/10 10:47:48;;;;;;;6.43;3.80;;;;;;;3.18;79.11;99086.50;5033376;28;20108;-80
2021/12/10 10:50:20;;;;;;;6.13;3.40;;;;;;;3.23;78.88;99102.88;5031751;28;20048;-82
2021/12/10 10:52:50;;;;;;;11.35;3.63;;;;;;;3.24;77.31;99086.44;5032883;28;20064;-82
2021/12/10 10:55:29;;;;;;;8.52;2.97;;;;;;;3.27;78.10;99101.94;5032191;28;20025;-83
2021/12/10 10:57:56;;;;;;;8.40;3.85;;;;;;;3.28;77.36;99097.63;5024880;28;20389;-78
2021/12/10 11:00:32;;;;;;;9.18;3.13;;;;;;;3.29;77.74;99104.53;5047433;28;20038;-84
2021/12/10 11:03:09;;;;;;;6.78;3.67;;;;;;;3.32;78.01;99098.44;5032998;28;20029;-83
2021/12/10 11:05:42;;;;;;;7.72;3.47;;;;;;;3.36;78.78;99097.53;5033265;28;20075;-83
2021/12/10 11:08:08;;;;;;;9.05;2.92;;;;;;;3.41;77.53;99100.97;5033075;28;20033;-81
2021/12/10 11:10:39;;;;;;;15.43;3.97;;;;;;;3.46;77.96;99092.28;5000235;28;20030;-83
2021/12/10 11:13:08;;;;;;;9.90;4.78;;;;;;;3.46;77.50;99100.03;5014236;28;20140;-82
2021/12/10 11:15:33;;;;;;;14.85;3.55;;;;;;;3.44;77.48;99094.00;5012886;28;20034;-84
2021/12/10 11:17:59;;;;;;;3.28;2.83;;;;;;;3.46;76.88;99094.84;4989357;28;20863;-81
2021/12/10 11:20:29;;;;;;;10.95;4.07;;;;;;;3.52;76.75;99095.66;4999753;28;20494;-84
2021/12/10 11:23:01;;;;;;;16.25;3.58;;;;;;;3.49;76.89;99106.03;5033442;28;20032;-85
2021/12/10 11:25:36;;;;;;;8.88;4.45;;;;;;;3.50;76.29;99107.78;5029823;28;20486;-83
2021/12/10 11:28:08;;;;;;;11.40;4.22;;;;;;;3.47;75.83;99108.66;5013023;28;20034;-84
2021/12/10 11:31:02;;;;;;;11.25;3.90;;;;;;;3.49;76.50;99106.03;5020311;28;20025;-83
2021/12/10 11:33:31;;;;;;;10.02;4.55;;;;;;;3.44;75.77;99109.53;5028976;28;20422;-81
2021/12/10 11:36:05;;;;;;;9.02;4.03;;;;;;;3.47;76.50;99108.66;5035499;28;20033;-84
2021/12/10 11:38:33;;;;;;;12.43;4.00;;;;;;;3.50;75.35;99112.94;5031093;28;20025;-81
2021/12/10 11:41:04;;;;;;;11.43;4.65;;;;;;;3.51;76.00;99110.34;5047158;28;20036;-81
2021/12/10 11:46:05;;;;;;;11.25;6.07;;;;;;;3.36;75.40;99111.38;5032865;28;20528;-81
2021/12/10 11:48:34;;;;;;;12.32;3.60;;;;;;;3.40;75.66;99109.59;5030832;28;20041;-83
2021/12/10 11:51:12;;;;;;;10.57;3.45;;;;;;;3.42;76.13;99110.41;5031381;28;20021;-82
2021/12/10 11:53:46;;;;;;;7.78;3.42;;;;;;;3.35;77.21;99125.19;5029124;28;20045;-82
2021/12/10 11:56:15;;;;;;;13.70;3.50;;;;;;;3.34;76.46;99122.59;5029789;28;20485;-81
2021/12/10 11:58:41;;;;;;;12.55;4.07;;;;;;;3.29;75.18;99120.91;5025256;28;20033;-81
2021/12/10 12:01:16;;;;;;;9.70;3.80;;;;;;;3.33;75.76;99126.06;5005434;28;20054;-82